createdAt,value
2017-10-06T00:00:22.215Z,16.93
2017-10-06T00:01:22.203Z,16.86
2017-10-06T00:02:22.501Z,17.01
2017-10-06T00:03:43.192Z,16.86
2017-10-06T00:04:22.181Z,16.83
2017-10-06T00:05:22.182Z,16.83
2017-10-06T00:06:22.161Z,16.94
2017-10-06T00:07:22.490Z,16.98
2017-10-06T00:08:22.156Z,16.86
2017-10-06T00:09:22.152Z,16.82
2017-10-06T00:10:22.136Z,16.83
2017-10-06T00:11:22.133Z,16.89
2017-10-06T00:12:22.140Z,16.82
2017-10-06T00:13:22.110Z,16.88
2017-10-06T00:14:22.098Z,16.82
2017-10-06T00:15:22.088Z,16.83
2017-10-06T00:16:22.089Z,16.88
2017-10-06T00:17:22.522Z,16.82
2017-10-06T00:18:22.069Z,16.83
2017-10-06T00:19:22.061Z,16.85
2017-10-06T00:20:22.053Z,16.86
2017-10-06T00:21:22.038Z,16.83
2017-10-06T00:22:22.040Z,16.79
2017-10-06T00:23:22.317Z,16.79
2017-10-06T00:24:22.015Z,16.85
2017-10-06T00:25:22.008Z,16.83
2017-10-06T00:26:21.999Z,16.93
2017-10-06T00:27:21.985Z,16.83
2017-10-06T00:28:21.987Z,16.85
2017-10-06T00:29:21.994Z,16.82
2017-10-06T00:30:21.963Z,16.91
2017-10-06T00:31:21.953Z,16.85
2017-10-06T00:32:21.953Z,16.82
2017-10-06T00:33:21.942Z,16.82
2017-10-06T00:34:21.927Z,16.88
2017-10-06T00:35:22.271Z,16.82
2017-10-06T00:36:21.910Z,16.81
2017-10-06T00:37:21.903Z,16.83
2017-10-06T00:38:21.892Z,16.88
2017-10-06T00:39:21.882Z,16.83
2017-10-06T00:40:21.878Z,16.85
2017-10-06T00:41:21.895Z,16.89
2017-10-06T00:42:21.861Z,16.85
2017-10-06T00:43:21.857Z,16.81
2017-10-06T00:44:21.841Z,16.83
2017-10-06T00:45:21.836Z,16.81
2017-10-06T00:46:22.252Z,16.83
2017-10-06T00:47:21.814Z,16.83
2017-10-06T00:48:21.810Z,16.83
2017-10-06T00:49:21.804Z,16.82
2017-10-06T00:50:21.789Z,16.93
2017-10-06T00:51:21.780Z,16.83
2017-10-06T00:52:22.122Z,16.88
2017-10-06T00:53:21.765Z,16.91
2017-10-06T00:54:21.755Z,16.81
2017-10-06T00:55:21.744Z,16.83
2017-10-06T00:56:21.735Z,16.81
2017-10-06T00:57:21.738Z,16.89
2017-10-06T00:58:22.207Z,16.78
2017-10-06T00:59:21.709Z,16.83
2017-10-06T01:00:21.702Z,16.78
2017-10-06T01:01:21.699Z,16.79
2017-10-06T01:02:21.690Z,16.79
2017-10-06T01:03:21.680Z,16.89
2017-10-06T01:04:22.105Z,16.85
2017-10-06T01:05:21.662Z,16.89
2017-10-06T01:06:21.650Z,16.89
2017-10-06T01:07:21.639Z,16.75
2017-10-06T01:08:21.634Z,16.79
2017-10-06T01:09:21.622Z,16.83
2017-10-06T01:10:21.842Z,16.85
2017-10-06T01:11:21.607Z,16.75
2017-10-06T01:12:21.605Z,16.81
2017-10-06T01:13:21.589Z,16.79
2017-10-06T01:14:21.580Z,16.89
2017-10-06T01:15:21.576Z,16.75
2017-10-06T01:16:21.996Z,16.79
2017-10-06T01:17:21.554Z,16.71
2017-10-06T01:18:21.550Z,16.79
2017-10-06T01:19:21.534Z,16.68
2017-10-06T01:20:21.539Z,16.79
2017-10-06T01:21:21.521Z,16.86
2017-10-06T01:22:21.889Z,16.78
2017-10-06T01:23:21.500Z,16.81
2017-10-06T01:24:21.500Z,16.71
2017-10-06T01:25:21.484Z,16.76
2017-10-06T01:26:21.477Z,16.79
2017-10-06T01:27:21.468Z,16.73
2017-10-06T01:28:21.770Z,16.78
2017-10-06T01:29:21.451Z,16.75
2017-10-06T01:30:21.448Z,16.71
2017-10-06T01:31:21.433Z,16.85
2017-10-06T01:32:21.430Z,16.79
2017-10-06T01:33:21.419Z,16.78
2017-10-06T01:34:21.724Z,16.75
2017-10-06T01:35:21.404Z,16.79
2017-10-06T01:36:21.392Z,16.79
2017-10-06T01:37:21.381Z,16.76
2017-10-06T01:38:21.371Z,16.78
2017-10-06T01:39:21.366Z,16.76
2017-10-06T01:40:21.381Z,16.75
2017-10-06T01:41:21.701Z,16.78
2017-10-06T01:42:21.334Z,16.75
2017-10-06T01:43:21.330Z,16.68
2017-10-06T01:44:21.319Z,16.68
2017-10-06T01:45:21.316Z,16.78
2017-10-06T01:46:21.303Z,16.79
2017-10-06T01:47:21.650Z,16.75
2017-10-06T01:48:21.294Z,16.71
2017-10-06T01:49:21.278Z,16.79
2017-10-06T01:50:21.268Z,16.76
2017-10-06T01:51:21.261Z,16.81
2017-10-06T01:52:21.251Z,16.78
2017-10-06T01:53:21.630Z,16.76
2017-10-06T01:54:21.233Z,16.70
2017-10-06T01:55:21.229Z,16.71
2017-10-06T01:56:21.214Z,16.78
2017-10-06T01:57:21.210Z,16.78
2017-10-06T01:58:21.202Z,16.78
2017-10-06T01:59:21.406Z,16.78
2017-10-06T02:00:21.178Z,16.76
2017-10-06T02:01:21.178Z,16.78
2017-10-06T02:02:21.165Z,16.76
2017-10-06T02:03:21.157Z,16.75
2017-10-06T02:04:21.149Z,16.73
2017-10-06T02:05:21.356Z,16.75
2017-10-06T02:06:21.137Z,16.79
2017-10-06T02:07:21.121Z,16.76
2017-10-06T02:08:21.114Z,16.76
2017-10-06T02:09:21.104Z,16.79
2017-10-06T02:10:21.094Z,16.75
2017-10-06T02:11:21.468Z,16.79
2017-10-06T02:12:21.086Z,16.79
2017-10-06T02:13:21.068Z,16.82
2017-10-06T02:14:21.062Z,16.76
2017-10-06T02:15:21.051Z,16.75
2017-10-06T02:16:21.041Z,16.78
2017-10-06T02:17:21.327Z,16.76
2017-10-06T02:18:21.028Z,16.78
2017-10-06T02:19:21.015Z,16.73
2017-10-06T02:20:21.010Z,16.75
2017-10-06T02:21:20.997Z,16.82
2017-10-06T02:22:20.988Z,16.78
2017-10-06T02:23:21.284Z,16.73
2017-10-06T02:24:20.973Z,16.82
2017-10-06T02:25:20.968Z,16.76
2017-10-06T02:26:20.951Z,16.71
2017-10-06T02:27:20.953Z,16.75
2017-10-06T02:28:20.941Z,16.67
2017-10-06T02:29:21.246Z,16.70
2017-10-06T02:30:20.917Z,16.73
2017-10-06T02:31:20.911Z,16.71
2017-10-06T02:32:20.910Z,16.75
2017-10-06T02:33:20.897Z,16.83
2017-10-06T02:34:20.885Z,16.71
2017-10-06T02:35:21.314Z,16.70
2017-10-06T02:36:20.870Z,16.67
2017-10-06T02:37:20.861Z,16.67
2017-10-06T02:38:20.855Z,16.75
2017-10-06T02:39:20.842Z,16.71
2017-10-06T02:40:20.834Z,16.66
2017-10-06T02:41:21.178Z,16.71
2017-10-06T02:42:20.814Z,16.75
2017-10-06T02:43:20.807Z,16.66
2017-10-06T02:44:20.799Z,16.67
2017-10-06T02:45:20.791Z,16.66
2017-10-06T02:46:20.782Z,16.78
2017-10-06T02:47:21.084Z,16.67
2017-10-06T02:48:20.764Z,16.67
2017-10-06T02:49:20.756Z,16.67
2017-10-06T02:50:20.749Z,16.73
2017-10-06T02:51:20.747Z,16.70
2017-10-06T02:52:20.726Z,16.71
2017-10-06T02:53:21.065Z,16.68
2017-10-06T02:54:20.720Z,16.68
2017-10-06T02:55:20.699Z,16.68
2017-10-06T02:56:20.696Z,16.67
2017-10-06T02:57:20.690Z,16.78
2017-10-06T02:58:20.684Z,16.70
2017-10-06T02:59:20.693Z,16.68
2017-10-06T03:00:20.656Z,16.71
2017-10-06T03:01:20.650Z,16.70
2017-10-06T03:02:20.943Z,16.68
2017-10-06T03:03:20.638Z,16.66
2017-10-06T03:04:20.623Z,16.70
2017-10-06T03:05:20.619Z,16.67
2017-10-06T03:06:20.607Z,16.71
2017-10-06T03:07:20.596Z,16.71
2017-10-06T03:08:21.020Z,16.71
2017-10-06T03:09:20.578Z,16.73
2017-10-06T03:10:20.572Z,16.70
2017-10-06T03:11:20.559Z,16.67
2017-10-06T03:12:20.553Z,16.64
2017-10-06T03:13:20.544Z,16.67
2017-10-06T03:14:20.565Z,16.67
2017-10-06T03:15:20.526Z,16.70
2017-10-06T03:16:20.521Z,16.68
2017-10-06T03:17:20.525Z,16.64
2017-10-06T03:18:20.502Z,16.63
2017-10-06T03:19:20.500Z,16.68
2017-10-06T03:20:20.837Z,16.70
2017-10-06T03:21:20.479Z,16.71
2017-10-06T03:22:20.474Z,16.68
2017-10-06T03:23:20.459Z,16.70
2017-10-06T03:24:20.446Z,16.68
2017-10-06T03:25:20.447Z,16.73
2017-10-06T03:26:20.456Z,16.68
2017-10-06T03:27:20.721Z,16.71
2017-10-06T03:28:20.413Z,16.70
2017-10-06T03:29:20.404Z,16.66
2017-10-06T03:30:20.395Z,16.68
2017-10-06T03:31:20.390Z,16.64
2017-10-06T03:32:20.379Z,16.63
2017-10-06T03:33:20.734Z,16.60
2017-10-06T03:34:20.370Z,16.66
2017-10-06T03:35:20.362Z,16.67
2017-10-06T03:36:20.343Z,16.67
2017-10-06T03:37:20.339Z,16.68
2017-10-06T03:38:20.328Z,16.68
2017-10-06T03:39:20.755Z,16.64
2017-10-06T03:40:20.312Z,16.64
2017-10-06T03:41:20.302Z,16.64
2017-10-06T03:42:20.290Z,16.64
2017-10-06T03:43:20.283Z,16.67
2017-10-06T03:44:20.273Z,16.66
2017-10-06T03:45:20.291Z,16.73
2017-10-06T03:46:20.263Z,16.64
2017-10-06T03:47:20.250Z,16.67
2017-10-06T03:48:20.239Z,16.70
2017-10-06T03:49:20.616Z,16.66
2017-10-06T03:50:20.222Z,16.64
2017-10-06T03:51:20.212Z,16.68
2017-10-06T03:52:20.206Z,16.70
2017-10-06T03:53:20.193Z,16.66
2017-10-06T03:54:20.183Z,16.66
2017-10-06T03:55:20.606Z,16.71
2017-10-06T03:56:20.172Z,16.66
2017-10-06T03:57:20.157Z,16.64
2017-10-06T03:58:20.151Z,16.66
2017-10-06T03:59:20.138Z,16.71
2017-10-06T04:00:20.134Z,16.66
2017-10-06T04:01:20.472Z,16.68
2017-10-06T04:02:20.123Z,16.64
2017-10-06T04:03:20.107Z,16.68
2017-10-06T04:04:20.100Z,16.66
2017-10-06T04:05:20.087Z,16.68
2017-10-06T04:06:20.079Z,16.66
2017-10-06T04:07:20.403Z,16.67
2017-10-06T04:08:20.068Z,16.66
2017-10-06T04:09:20.052Z,16.68
2017-10-06T04:10:20.047Z,16.64
2017-10-06T04:11:20.038Z,16.63
2017-10-06T04:12:20.027Z,16.71
2017-10-06T04:13:20.241Z,16.61
2017-10-06T04:14:20.016Z,16.66
2017-10-06T04:15:20.000Z,16.63
2017-10-06T04:16:19.992Z,16.63
2017-10-06T04:17:19.985Z,16.61
2017-10-06T04:18:19.978Z,16.63
2017-10-06T04:19:20.358Z,16.66
2017-10-06T04:20:19.957Z,16.61
2017-10-06T04:21:19.949Z,16.63
2017-10-06T04:22:19.944Z,16.71
2017-10-06T04:23:19.935Z,16.64
2017-10-06T04:24:19.921Z,16.61
2017-10-06T04:25:20.277Z,16.64
2017-10-06T04:26:19.906Z,16.60
2017-10-06T04:27:19.897Z,16.67
2017-10-06T04:28:19.891Z,16.66
2017-10-06T04:29:19.878Z,16.53
2017-10-06T04:30:19.873Z,16.60
2017-10-06T04:31:19.888Z,16.66
2017-10-06T04:32:19.851Z,16.64
2017-10-06T04:33:19.844Z,16.63
2017-10-06T04:34:19.832Z,16.61
2017-10-06T04:35:19.828Z,16.73
2017-10-06T04:36:19.841Z,16.66
2017-10-06T04:37:19.807Z,16.66
2017-10-06T04:38:19.799Z,16.64
2017-10-06T04:39:19.789Z,16.57
2017-10-06T04:40:19.786Z,16.61
2017-10-06T04:41:20.174Z,16.60
2017-10-06T04:42:19.764Z,16.64
2017-10-06T04:43:19.755Z,16.64
2017-10-06T04:44:19.746Z,16.57
2017-10-06T04:45:19.741Z,16.73
2017-10-06T04:46:19.726Z,16.67
2017-10-06T04:47:20.107Z,16.53
2017-10-06T04:48:19.706Z,16.70
2017-10-06T04:49:19.704Z,16.63
2017-10-06T04:50:19.694Z,16.63
2017-10-06T04:51:19.684Z,16.53
2017-10-06T04:52:19.675Z,16.61
2017-10-06T04:53:19.876Z,16.66
2017-10-06T04:54:19.661Z,16.58
2017-10-06T04:55:19.665Z,16.60
2017-10-06T04:56:19.639Z,16.49
2017-10-06T04:57:19.630Z,16.68
2017-10-06T04:58:19.630Z,16.56
2017-10-06T04:59:19.994Z,16.52
2017-10-06T05:00:19.607Z,16.53
2017-10-06T05:01:19.604Z,16.58
2017-10-06T05:02:19.585Z,16.60
2017-10-06T05:03:19.580Z,16.53
2017-10-06T05:04:19.570Z,16.70
2017-10-06T05:05:19.904Z,16.56
2017-10-06T05:06:19.549Z,16.53
2017-10-06T05:07:19.548Z,16.63
2017-10-06T05:08:19.531Z,16.56
2017-10-06T05:09:19.525Z,16.66
2017-10-06T05:10:19.513Z,16.63
2017-10-06T05:11:19.806Z,16.52
2017-10-06T05:12:19.500Z,16.52
2017-10-06T05:13:19.491Z,16.53
2017-10-06T05:14:19.486Z,16.56
2017-10-06T05:15:19.471Z,16.61
2017-10-06T05:16:19.464Z,16.56
2017-10-06T05:17:19.857Z,16.60
2017-10-06T05:18:19.447Z,16.53
2017-10-06T05:19:19.438Z,16.50
2017-10-06T05:20:19.427Z,16.60
2017-10-06T05:21:19.426Z,16.56
2017-10-06T05:22:19.409Z,16.52
2017-10-06T05:23:19.624Z,16.57
2017-10-06T05:24:19.393Z,16.58
2017-10-06T05:25:19.382Z,16.53
2017-10-06T05:26:19.375Z,16.52
2017-10-06T05:27:19.368Z,16.60
2017-10-06T05:28:19.359Z,16.58
2017-10-06T05:29:19.816Z,16.53
2017-10-06T05:30:19.341Z,16.63
2017-10-06T05:31:19.331Z,16.58
2017-10-06T05:32:19.324Z,16.64
2017-10-06T05:33:19.317Z,16.63
2017-10-06T05:34:19.307Z,16.50
2017-10-06T05:35:19.695Z,16.64
2017-10-06T05:36:19.299Z,16.61
2017-10-06T05:37:19.278Z,16.53
2017-10-06T05:38:19.270Z,16.58
2017-10-06T05:39:19.264Z,16.56
2017-10-06T05:40:19.255Z,16.61
2017-10-06T05:41:19.269Z,16.61
2017-10-06T05:42:19.232Z,16.61
2017-10-06T05:43:19.520Z,16.52
2017-10-06T05:44:19.226Z,16.56
2017-10-06T05:45:19.208Z,16.58
2017-10-06T05:46:19.200Z,16.61
2017-10-06T05:47:19.191Z,16.53
2017-10-06T05:48:19.188Z,16.56
2017-10-06T05:49:19.616Z,16.60
2017-10-06T05:50:19.164Z,16.53
2017-10-06T05:51:19.154Z,16.56
2017-10-06T05:52:19.146Z,16.58
2017-10-06T05:53:19.142Z,16.52
2017-10-06T05:54:19.133Z,16.58
2017-10-06T05:55:19.414Z,16.52
2017-10-06T05:56:19.108Z,16.53
2017-10-06T05:57:19.104Z,16.53
2017-10-06T05:58:19.099Z,16.50
2017-10-06T05:59:19.084Z,16.52
2017-10-06T06:00:19.075Z,16.50
2017-10-06T06:01:19.438Z,16.50
2017-10-06T06:02:19.056Z,16.58
2017-10-06T06:03:19.047Z,16.49
2017-10-06T06:04:19.039Z,16.53
2017-10-06T06:05:19.033Z,16.53
2017-10-06T06:06:19.020Z,16.50
2017-10-06T06:07:19.229Z,16.50
2017-10-06T06:08:19.003Z,16.56
2017-10-06T06:09:19.000Z,16.53
2017-10-06T06:10:18.987Z,16.57
2017-10-06T06:11:18.980Z,16.56
2017-10-06T06:12:18.963Z,16.56
2017-10-06T06:13:19.267Z,16.57
2017-10-06T06:14:18.949Z,16.48
2017-10-06T06:15:18.945Z,16.50
2017-10-06T06:16:18.933Z,16.49
2017-10-06T06:17:18.926Z,16.56
2017-10-06T06:18:18.915Z,16.50
2017-10-06T06:19:18.936Z,16.52
2017-10-06T06:20:18.896Z,16.45
2017-10-06T06:21:18.890Z,16.52
2017-10-06T06:22:18.884Z,16.56
2017-10-06T06:23:19.270Z,16.52
2017-10-06T06:24:18.866Z,16.57
2017-10-06T06:25:18.855Z,16.52
2017-10-06T06:26:18.852Z,16.53
2017-10-06T06:27:18.834Z,16.50
2017-10-06T06:28:18.828Z,16.57
2017-10-06T06:29:19.268Z,16.58
2017-10-06T06:30:18.808Z,16.49
2017-10-06T06:31:18.799Z,16.50
2017-10-06T06:32:18.792Z,16.50
2017-10-06T06:33:18.785Z,16.50
2017-10-06T06:34:18.772Z,16.52
2017-10-06T06:35:18.802Z,16.50
2017-10-06T06:36:18.760Z,16.49
2017-10-06T06:37:18.752Z,16.58
2017-10-06T06:38:18.738Z,16.56
2017-10-06T06:39:19.131Z,16.49
2017-10-06T06:40:18.738Z,16.52
2017-10-06T06:41:18.712Z,16.53
2017-10-06T06:42:18.702Z,16.45
2017-10-06T06:43:18.693Z,16.48
2017-10-06T06:44:18.683Z,16.52
2017-10-06T06:45:19.066Z,16.57
2017-10-06T06:46:18.668Z,16.43
2017-10-06T06:47:18.654Z,16.46
2017-10-06T06:48:18.647Z,16.46
2017-10-06T06:49:18.642Z,16.48
2017-10-06T06:50:18.636Z,16.41
2017-10-06T06:51:19.091Z,16.46
2017-10-06T06:52:18.618Z,16.52
2017-10-06T06:53:18.604Z,16.42
2017-10-06T06:54:18.898Z,16.53
2017-10-06T06:55:18.585Z,16.46
2017-10-06T06:56:18.579Z,16.48
2017-10-06T06:57:18.930Z,16.53
2017-10-06T06:58:18.566Z,16.48
2017-10-06T06:59:18.555Z,16.42
2017-10-06T07:00:18.545Z,16.52
2017-10-06T07:01:18.534Z,16.45
2017-10-06T07:02:18.524Z,16.42
2017-10-06T07:03:18.547Z,16.50
2017-10-06T07:04:18.508Z,16.58
2017-10-06T07:05:18.497Z,16.48
2017-10-06T07:06:18.490Z,16.53
2017-10-06T07:07:18.777Z,16.48
2017-10-06T07:08:18.470Z,16.39
2017-10-06T07:09:18.466Z,16.48
2017-10-06T07:10:18.460Z,16.49
2017-10-06T07:11:18.447Z,16.43
2017-10-06T07:12:18.433Z,16.52
2017-10-06T07:13:18.800Z,16.46
2017-10-06T07:14:18.417Z,16.50
2017-10-06T07:15:18.411Z,16.45
2017-10-06T07:16:18.405Z,16.50
2017-10-06T07:17:18.392Z,16.41
2017-10-06T07:18:18.381Z,16.48
2017-10-06T07:19:18.773Z,16.43
2017-10-06T07:20:18.371Z,16.49
2017-10-06T07:21:18.359Z,16.48
2017-10-06T07:22:18.349Z,16.43
2017-10-06T07:23:18.340Z,16.52
2017-10-06T07:24:18.334Z,16.43
2017-10-06T07:25:18.711Z,16.42
2017-10-06T07:26:18.311Z,16.48
2017-10-06T07:27:18.308Z,16.45
2017-10-06T07:28:18.297Z,16.45
2017-10-06T07:29:18.283Z,16.45
2017-10-06T07:30:18.276Z,16.49
2017-10-06T07:31:18.295Z,16.48
2017-10-06T07:32:18.567Z,16.48
2017-10-06T07:33:18.258Z,16.48
2017-10-06T07:34:18.241Z,16.52
2017-10-06T07:35:18.228Z,16.43
2017-10-06T07:36:18.224Z,16.49
2017-10-06T07:37:18.214Z,16.48
2017-10-06T07:38:18.437Z,16.46
2017-10-06T07:39:18.195Z,16.49
2017-10-06T07:40:18.191Z,16.48
2017-10-06T07:41:18.177Z,16.49
2017-10-06T07:42:18.168Z,16.49
2017-10-06T07:43:18.164Z,16.48
2017-10-06T07:44:18.457Z,16.45
2017-10-06T07:45:18.143Z,16.48
2017-10-06T07:46:18.137Z,16.49
2017-10-06T07:47:18.126Z,16.45
2017-10-06T07:48:18.113Z,16.45
2017-10-06T07:49:18.111Z,16.50
2017-10-06T07:50:18.123Z,16.49
2017-10-06T07:51:18.089Z,16.45
2017-10-06T07:52:18.092Z,16.41
2017-10-06T07:53:18.448Z,16.49
2017-10-06T07:54:18.058Z,16.43
2017-10-06T07:55:18.059Z,16.48
2017-10-06T07:56:18.047Z,16.46
2017-10-06T07:57:18.038Z,16.46
2017-10-06T07:58:18.026Z,16.41
2017-10-06T07:59:18.420Z,16.45
2017-10-06T08:00:18.013Z,16.53
2017-10-06T08:01:18.009Z,16.52
2017-10-06T08:02:17.988Z,16.45
2017-10-06T08:03:17.983Z,16.45
2017-10-06T08:04:17.971Z,16.50
2017-10-06T08:05:18.189Z,16.53
2017-10-06T08:06:17.955Z,16.52
2017-10-06T08:07:17.945Z,16.49
2017-10-06T08:08:17.940Z,16.52
2017-10-06T08:09:17.932Z,16.53
2017-10-06T08:10:17.921Z,16.52
2017-10-06T08:11:17.943Z,16.45
2017-10-06T08:12:17.908Z,16.49
2017-10-06T08:13:18.290Z,16.48
2017-10-06T08:14:17.880Z,16.48
2017-10-06T08:15:17.885Z,16.49
2017-10-06T08:16:17.869Z,16.57
2017-10-06T08:17:17.857Z,16.50
2017-10-06T08:18:17.848Z,16.45
2017-10-06T08:19:18.293Z,16.52
2017-10-06T08:20:17.837Z,16.52
2017-10-06T08:21:17.819Z,16.45
2017-10-06T08:22:17.814Z,16.49
2017-10-06T08:23:17.803Z,16.43
2017-10-06T08:24:17.802Z,16.43
2017-10-06T08:25:18.088Z,16.50
2017-10-06T08:26:17.776Z,16.43
2017-10-06T08:27:17.768Z,16.48
2017-10-06T08:28:17.759Z,16.52
2017-10-06T08:29:17.757Z,16.53
2017-10-06T08:30:17.748Z,16.52
2017-10-06T08:31:18.113Z,16.41
2017-10-06T08:32:17.726Z,16.52
2017-10-06T08:33:17.716Z,16.49
2017-10-06T08:34:17.708Z,16.46
2017-10-06T08:35:17.695Z,16.42
2017-10-06T08:36:17.692Z,16.42
2017-10-06T08:37:18.146Z,16.45
2017-10-06T08:38:17.672Z,16.48
2017-10-06T08:39:17.664Z,16.42
2017-10-06T08:40:17.650Z,16.42
2017-10-06T08:41:17.644Z,16.49
2017-10-06T08:42:17.634Z,16.41
2017-10-06T08:43:18.013Z,16.42
2017-10-06T08:44:17.617Z,16.50
2017-10-06T08:45:17.615Z,16.43
2017-10-06T08:46:17.599Z,16.42
2017-10-06T08:47:17.594Z,16.43
2017-10-06T08:48:17.585Z,16.49
2017-10-06T08:49:17.873Z,16.38
2017-10-06T08:50:17.559Z,16.43
2017-10-06T08:51:17.553Z,16.48
2017-10-06T08:52:17.551Z,16.48
2017-10-06T08:53:17.546Z,16.48
2017-10-06T08:54:17.526Z,16.48
2017-10-06T08:55:17.553Z,16.39
2017-10-06T08:56:17.511Z,16.45
2017-10-06T08:57:17.506Z,16.52
2017-10-06T08:58:17.494Z,16.52
2017-10-06T08:59:17.863Z,16.39
2017-10-06T09:00:17.475Z,16.49
2017-10-06T09:01:17.472Z,16.56
2017-10-06T09:02:17.455Z,16.49
2017-10-06T09:03:17.450Z,16.49
2017-10-06T09:04:17.442Z,16.43
2017-10-06T09:05:17.867Z,16.42
2017-10-06T09:06:17.422Z,16.49
2017-10-06T09:07:17.412Z,16.42
2017-10-06T09:08:17.405Z,16.49
2017-10-06T09:09:17.394Z,16.42
2017-10-06T09:10:17.387Z,16.52
2017-10-06T09:11:17.720Z,16.43
2017-10-06T09:12:17.368Z,16.38
2017-10-06T09:13:17.354Z,16.46
2017-10-06T09:14:17.350Z,16.46
2017-10-06T09:15:17.345Z,16.48
2017-10-06T09:16:17.331Z,16.41
2017-10-06T09:17:17.545Z,16.41
2017-10-06T09:18:17.321Z,16.52
2017-10-06T09:19:17.308Z,16.42
2017-10-06T09:20:17.298Z,16.48
2017-10-06T09:21:17.292Z,16.48
2017-10-06T09:22:17.280Z,16.45
2017-10-06T09:23:17.658Z,16.45
2017-10-06T09:24:17.262Z,16.48
2017-10-06T09:25:17.252Z,16.43
2017-10-06T09:26:17.243Z,16.45
2017-10-06T09:27:17.236Z,16.45
2017-10-06T09:28:17.229Z,16.45
2017-10-06T09:29:17.509Z,16.45
2017-10-06T09:30:17.216Z,16.53
2017-10-06T09:31:17.202Z,16.46
2017-10-06T09:32:17.190Z,16.50
2017-10-06T09:33:17.183Z,16.39
2017-10-06T09:34:17.171Z,16.46
2017-10-06T09:35:17.484Z,16.50
2017-10-06T09:36:17.156Z,16.50
2017-10-06T09:37:17.149Z,16.50
2017-10-06T09:38:17.142Z,16.43
2017-10-06T09:39:17.128Z,16.39
2017-10-06T09:40:17.135Z,16.46
2017-10-06T09:41:17.420Z,16.43
2017-10-06T09:42:17.099Z,16.43
2017-10-06T09:43:17.092Z,16.43
2017-10-06T09:44:17.088Z,16.46
2017-10-06T09:45:17.087Z,16.45
2017-10-06T09:46:17.064Z,16.43
2017-10-06T09:47:17.376Z,16.45
2017-10-06T09:48:17.047Z,16.50
2017-10-06T09:49:17.037Z,16.49
2017-10-06T09:50:17.028Z,16.52
2017-10-06T09:51:17.022Z,16.42
2017-10-06T09:52:17.012Z,16.41
2017-10-06T09:53:17.366Z,16.49
2017-10-06T09:54:16.996Z,16.50
2017-10-06T09:55:16.984Z,16.53
2017-10-06T09:56:16.973Z,16.56
2017-10-06T09:57:16.970Z,16.56
2017-10-06T09:58:16.966Z,16.53
2017-10-06T09:59:17.000Z,16.57
2017-10-06T10:00:16.945Z,16.53
2017-10-06T10:01:16.940Z,16.53
2017-10-06T10:02:16.925Z,16.46
2017-10-06T10:03:16.923Z,16.49
2017-10-06T10:04:17.373Z,16.48
2017-10-06T10:05:16.896Z,16.50
2017-10-06T10:06:16.887Z,16.53
2017-10-06T10:07:16.878Z,16.58
2017-10-06T10:08:16.871Z,16.49
2017-10-06T10:09:16.863Z,16.53
2017-10-06T10:10:17.252Z,16.50
2017-10-06T10:11:16.838Z,16.56
2017-10-06T10:12:16.834Z,16.48
2017-10-06T10:13:16.825Z,16.60
2017-10-06T10:14:16.816Z,16.56
2017-10-06T10:15:16.843Z,16.52
2017-10-06T10:16:16.829Z,16.57
2017-10-06T10:17:16.789Z,16.52
2017-10-06T10:18:16.780Z,16.50
2017-10-06T10:19:17.007Z,16.48
2017-10-06T10:20:16.763Z,16.57
2017-10-06T10:21:16.757Z,16.56
2017-10-06T10:22:16.746Z,16.52
2017-10-06T10:23:16.733Z,16.52
2017-10-06T10:24:16.729Z,16.53
2017-10-06T10:25:17.171Z,16.58
2017-10-06T10:26:16.708Z,16.52
2017-10-06T10:27:16.701Z,16.50
2017-10-06T10:28:16.691Z,16.53
2017-10-06T10:29:16.686Z,16.46
2017-10-06T10:30:16.679Z,16.57
2017-10-06T10:31:17.051Z,16.52
2017-10-06T10:32:16.664Z,16.53
2017-10-06T10:33:16.649Z,16.57
2017-10-06T10:34:16.640Z,16.52
2017-10-06T10:35:16.637Z,16.52
2017-10-06T10:36:16.623Z,16.57
2017-10-06T10:37:16.644Z,16.52
2017-10-06T10:38:16.603Z,16.50
2017-10-06T10:39:16.811Z,16.52
2017-10-06T10:40:16.583Z,16.52
2017-10-06T10:41:16.576Z,16.50
2017-10-06T10:42:16.572Z,16.56
2017-10-06T10:43:16.559Z,16.50
2017-10-06T10:44:16.555Z,16.57
2017-10-06T10:45:16.575Z,16.56
2017-10-06T10:46:16.529Z,16.50
2017-10-06T10:47:16.520Z,16.53
2017-10-06T10:48:16.514Z,16.52
2017-10-06T10:49:16.932Z,16.58
2017-10-06T10:50:16.496Z,16.50
2017-10-06T10:51:16.488Z,16.57
2017-10-06T10:52:16.478Z,16.48
2017-10-06T10:53:16.471Z,16.56
2017-10-06T10:54:16.463Z,16.49
2017-10-06T10:55:16.664Z,16.53
2017-10-06T10:56:16.445Z,16.52
2017-10-06T10:57:16.435Z,16.56
2017-10-06T10:58:16.422Z,16.52
2017-10-06T10:59:16.418Z,16.60
2017-10-06T11:00:16.412Z,16.53
2017-10-06T11:01:16.842Z,16.48
2017-10-06T11:02:16.392Z,16.52
2017-10-06T11:03:16.383Z,16.50
2017-10-06T11:04:16.373Z,16.50
2017-10-06T11:05:16.362Z,16.53
2017-10-06T11:06:16.355Z,16.60
2017-10-06T11:07:16.737Z,16.57
2017-10-06T11:08:16.333Z,16.56
2017-10-06T11:09:16.328Z,16.57
2017-10-06T11:10:16.322Z,16.52
2017-10-06T11:11:16.306Z,16.57
2017-10-06T11:12:16.300Z,16.53
2017-10-06T11:13:16.672Z,16.57
2017-10-06T11:14:16.282Z,16.58
2017-10-06T11:15:16.279Z,16.60
2017-10-06T11:16:16.270Z,16.60
2017-10-06T11:17:16.253Z,16.66
2017-10-06T11:18:16.258Z,16.57
2017-10-06T11:19:16.448Z,16.52
2017-10-06T11:20:16.230Z,16.60
2017-10-06T11:21:16.223Z,16.58
2017-10-06T11:22:16.214Z,16.56
2017-10-06T11:23:16.208Z,16.60
2017-10-06T11:24:16.195Z,16.56
2017-10-06T11:25:16.603Z,16.60
2017-10-06T11:26:16.177Z,16.60
2017-10-06T11:27:16.171Z,16.61
2017-10-06T11:28:16.158Z,16.57
2017-10-06T11:29:16.146Z,16.57
2017-10-06T11:30:16.139Z,16.60
2017-10-06T11:31:16.449Z,16.57
2017-10-06T11:32:16.132Z,16.58
2017-10-06T11:33:16.120Z,16.56
2017-10-06T11:34:16.110Z,16.61
2017-10-06T11:35:16.096Z,16.53
2017-10-06T11:36:16.089Z,16.50
2017-10-06T11:37:16.380Z,16.58
2017-10-06T11:38:16.067Z,16.56
2017-10-06T11:39:16.067Z,16.53
2017-10-06T11:40:16.053Z,16.61
2017-10-06T11:41:16.047Z,16.52
2017-10-06T11:42:16.034Z,16.53
2017-10-06T11:43:16.438Z,16.60
2017-10-06T11:44:16.014Z,16.70
2017-10-06T11:45:16.009Z,16.58
2017-10-06T11:46:16.013Z,16.56
2017-10-06T11:47:15.993Z,16.68
2017-10-06T11:48:15.981Z,16.60
2017-10-06T11:49:16.358Z,16.64
2017-10-06T11:50:15.969Z,16.56
2017-10-06T11:51:15.956Z,16.68
2017-10-06T11:52:15.949Z,16.53
2017-10-06T11:53:15.937Z,16.63
2017-10-06T11:54:15.929Z,16.63
2017-10-06T11:55:16.273Z,16.67
2017-10-06T11:56:15.915Z,16.49
2017-10-06T11:57:15.904Z,16.73
2017-10-06T11:58:15.898Z,16.64
2017-10-06T11:59:15.888Z,16.64
2017-10-06T12:00:15.882Z,16.64
2017-10-06T12:01:16.163Z,16.66
2017-10-06T12:02:15.861Z,16.60
2017-10-06T12:03:15.850Z,16.63
2017-10-06T12:04:15.844Z,16.71
2017-10-06T12:05:15.835Z,16.67
2017-10-06T12:06:15.825Z,16.66
2017-10-06T12:07:16.200Z,16.68
2017-10-06T12:08:15.810Z,16.66
2017-10-06T12:09:15.800Z,16.64
2017-10-06T12:10:15.793Z,16.66
2017-10-06T12:11:15.780Z,16.68
2017-10-06T12:12:15.772Z,16.67
2017-10-06T12:13:16.235Z,16.64
2017-10-06T12:14:15.754Z,16.70
2017-10-06T12:15:15.749Z,16.78
2017-10-06T12:16:15.736Z,16.67
2017-10-06T12:17:15.725Z,16.67
2017-10-06T12:18:15.720Z,16.68
2017-10-06T12:19:15.963Z,16.70
2017-10-06T12:20:15.702Z,16.70
2017-10-06T12:21:15.694Z,16.70
2017-10-06T12:22:15.686Z,16.67
2017-10-06T12:23:15.684Z,16.67
2017-10-06T12:24:15.664Z,16.75
2017-10-06T12:25:16.057Z,16.70
2017-10-06T12:26:15.658Z,16.71
2017-10-06T12:27:15.662Z,16.68
2017-10-06T12:28:15.637Z,16.75
2017-10-06T12:29:15.625Z,16.68
2017-10-06T12:30:15.611Z,16.71
2017-10-06T12:31:15.982Z,16.64
2017-10-06T12:32:15.595Z,16.66
2017-10-06T12:33:15.593Z,16.75
2017-10-06T12:34:15.576Z,16.73
2017-10-06T12:35:15.573Z,16.67
2017-10-06T12:36:15.562Z,16.68
2017-10-06T12:37:15.895Z,16.71
2017-10-06T12:38:15.547Z,16.66
2017-10-06T12:39:15.557Z,16.68
2017-10-06T12:40:15.531Z,16.66
2017-10-06T12:41:15.518Z,16.67
2017-10-06T12:42:15.510Z,16.67
2017-10-06T12:43:16.198Z,16.67
2017-10-06T12:44:15.494Z,16.75
2017-10-06T12:45:15.485Z,16.75
2017-10-06T12:46:15.477Z,16.67
2017-10-06T12:47:15.474Z,16.67
2017-10-06T12:48:15.454Z,16.67
2017-10-06T12:49:15.838Z,16.66
2017-10-06T12:50:15.439Z,16.66
2017-10-06T12:51:15.430Z,16.67
2017-10-06T12:52:15.429Z,16.67